Sonic Adventure (DX): Overall Rankings

Records: Times | Rings | Scores | Races | Bosses | Freestyle
Leaders: Times | Rings | Scores | Races | Bosses | Freestyle | Overall
Rank Player Percent Points Date
1 Sonicspeedruner 98.4% 256 05-29-15
2 Gamepro011 97.6% 384 05-29-15
3 DarkPolarNight 96.2% 604 05-29-15
4 Jawzun 93.8% 994 05-29-15
5 Dashjump 91.7% 1341 05-29-15
6 DarkspinesSonic 90.7% 1499 05-29-15
7 Avento128bits 90.3% 1573 05-29-15
8 ike6252 90.1% 1606 05-29-15
9 F-Man 86.0% 2277 05-29-15
10 HyperSonic7701 85.1% 2425 05-29-15
11 Coolfansonic 83.9% 2608 05-29-15
12 yoshifan 83.4% 2687 05-29-15
13 frankoredstrato 83.0% 2754 05-29-15
14 TheRealShadnic 82.0% 2915 05-29-15
15 francisco 82.0% 2916 05-29-15
16 Marth 81.7% 2970 05-29-15
17 InferSaime 80.4% 3187 05-29-15
18 PfoSonic 80.0% 3251 05-29-15
19 Paragod 79.5% 3332 05-29-15
20 THC98 78.3% 3519 05-29-15
21 Stefan 76.2% 3864 05-29-15
22 RPGnutter 73.9% 4236 05-29-15
23 bertin 73.9% 4242 05-29-15
24 sonicam 71.6% 4612 05-29-15
25 Combo 65.6% 5593 05-29-15
26 SkyLights 64.4% 5783 05-29-15
27 xXMegaManXx 63.6% 5922 05-29-15
28 Diamond 62.8% 6054 05-29-15
29 GerbilSoft 60.3% 6456 05-29-15
30 OmegaDJ 60.3% 6460 05-29-15
31 Auriman1 60.2% 6473 05-29-15
32 drminus 59.6% 6563 05-29-15
33 magnum12 59.3% 6622 05-29-15
34 Dawid8404 59.1% 6648 05-29-15
35 Thorn 57.2% 6958 05-29-15
36 P1 Pause 56.9% 7001 05-29-15
37 mike89 55.7% 7200 05-29-15
38 chainchumper 54.0% 7474 05-29-15
39 Groudon199 53.9% 7504 05-29-15
40 Dave Cramer 53.8% 7506 05-29-15
41 Parax 53.3% 7592 05-29-15
42 Shadow Jacky 52.7% 7686 05-29-15
43 Psymar 47.6% 8527 05-29-15
44 Chao_Fan 45.8% 8822 05-29-15
45 Arch 45.5% 8860 05-29-15
46 mauserman 45.4% 8880 05-29-15
47 Quartz 44.6% 9003 05-29-15
48 teamblackarms 43.6% 9170 05-29-15
49 Psyknux 43.5% 9192 05-29-15
50 James_Bertolli 42.9% 9293 05-29-15
51 NintenDan 42.3% 9382 05-29-15
52 Fr3nZy 41.8% 9473 05-29-15
53 Webber3000 41.8% 9474 05-29-15
54 Turbos 41.6% 9496 05-29-15
55 Ring Rush 41.6% 9505 05-29-15
56 Cream147 41.3% 9544 05-29-15
57 videogamemaster777 41.2% 9558 05-29-15
58 Siavash Tazari 41.0% 9596 05-29-15
59 buddychaos0415 40.5% 9673 05-29-15
60 SadisticMystic 39.9% 9778 05-29-15
61 eggFL 39.0% 9916 05-29-15
62 Redd 38.6% 9989 05-29-15
63 SB737 37.4% 10177 05-29-15
64 supersonicfan 36.2% 10370 05-29-15
65 FuzZerd 35.2% 10533 05-29-15
66 elecmouse101 34.5% 10656 05-29-15
67 supersonic465 34.4% 10678 05-29-15
68 Austinf 33.6% 10797 05-29-15
69 metanightmare22 32.9% 10923 05-29-15
70 Aitamen 32.8% 10924 05-29-15
71 dabestgamer 32.7% 10948 05-29-15
72 MiStEr_ShAoLiN 32.6% 10967 05-29-15
73 Cyan Ryan 32.5% 10974 05-29-15
74 itsPersonnal 31.8% 11095 05-29-15
75 Cybrax 30.9% 11242 05-29-15
76 Andrea Ritsu 30.6% 11295 05-29-15
77 danieldude 30.5% 11312 05-29-15
78 SilvertheAlmighty 30.4% 11321 05-29-15
79 VMU Player Banned 28.8% 11583 05-29-15
80 Omega Rafael Santos 28.4% 11642 05-29-15
81 Staf 28.1% 11695 05-29-15
82 The T 27.9% 11728 05-29-15
83 EngiNerd 27.6% 11778 05-29-15
84 lordmetalsonic 26.9% 11899 05-29-15
85 Hipertails12 26.7% 11919 05-29-15
86 welldooder64 26.2% 12006 05-29-15
87 GreatStar 26.2% 12008 05-29-15
88 Sondow 26.2% 12010 05-29-15
89 The Great Lord Mick 25.9% 12057 05-29-15
90 Mastakirby 25.8% 12064 05-29-15
91 LinksDarkArrows 25.7% 12087 05-29-15
92 Nimrod 25.4% 12129 05-29-15
93 Skylace 24.8% 12239 05-29-15
94 Rolken 23.3% 12472 05-29-15
95 Xia 21.8% 12725 05-29-15
96 Kogen Player Banned 21.7% 12737 05-29-15
97 Spinballwizard 21.6% 12756 05-29-15
98 Don 21.3% 12798 05-29-15
99 Miles9999 21.2% 12813 05-29-15
100 Cutiefox 21.2% 12816 05-29-15
101 f0rever_zer0 21.1% 12842 05-29-15
102 Game_Complete 21.0% 12847 05-29-15
103 andres430 20.4% 12952 05-29-15
104 Cruizer 20.3% 12964 05-29-15
105 iSonicKid2K 20.1% 12999 05-29-15
106 SADXTryHard 19.7% 13059 05-29-15
107 GarnetPrincess 19.4% 13117 05-29-15
108 knuckles_sonic8 18.8% 13213 05-29-15
109 Team_Yoshi 18.3% 13296 05-29-15
110 KinkyCadence 18.0% 13341 05-29-15
111 The Knuckles Chao 17.8% 13376 05-29-15
112 Termon 17.7% 13394 05-29-15
113 FoxBoy 17.6% 13402 05-29-15
114 a_moustache 17.6% 13409 05-29-15
115 LittleBigness 17.5% 13418 05-29-15
116 SonicWinDX 17.4% 13436 05-29-15
117 Sonic Singularity 15.5% 13746 05-29-15
118 Pokemonmaster888 15.5% 13754 05-29-15
119 BigAL49 14.5% 13918 05-29-15
120 SilverSonic 14.3% 13949 05-29-15
121 MPit08 14.2% 13960 05-29-15
122 WeegeeZV 14.1% 13982 05-29-15
123 Mo Player Banned 14.0% 13988 05-29-15
124 Cod4Scopes 13.4% 14084 05-29-15
125 HyperSonic64 13.2% 14115 05-29-15
126 booo95 13.2% 14128 05-29-15
127 Chawkk 13.1% 14146 05-29-15
128 paulie9990 13.0% 14162 05-29-15
129 Hunters13 12.9% 14174 05-29-15
130 SuperSonic101 12.9% 14176 05-29-15
131 Maxinfamily 12.6% 14213 05-29-15
132 Flying Fox 12.5% 14243 05-29-15
133 PsyBorg 12.4% 14245 05-29-15
134 Kanimayo_Jp 12.4% 14250 05-29-15
135 BrokenArthritis 12.3% 14266 05-29-15
136 LilZero 12.1% 14299 05-29-15
137 Therio 11.7% 14363 05-29-15
138 Drakodan 11.7% 14373 05-29-15
139 sonicspeed 11.6% 14379 05-29-15
140 douglas 11.5% 14403 05-29-15
141 Matt_TY 11.1% 14457 05-29-15
142 joecoolgames 10.5% 14556 05-29-15
143 Cooljay 10.5% 14558 05-29-15
144 SeaWolf 10.4% 14574 05-29-15
145 TFEC Headshot 9.9% 14658 05-29-15
146 welshmoose05 9.8% 14677 05-29-15
147 crazy1993 9.5% 14717 05-29-15
148 Mcshuggets 9.5% 14721 05-29-15
149 videogamer1014 9.2% 14770 05-29-15
150 imazor017 9.2% 14778 05-29-15
151 nuckrieg 9.0% 14798 05-29-15
152 niscool 9.0% 14808 05-29-15
153 SonicAD 9.0% 14809 05-29-15
154 SirTobbii 8.9% 14826 05-29-15
155 Shadowthegreat 8.7% 14854 05-29-15
155 superjupi 8.7% 14854 05-29-15
157 SaviourDC 8.4% 14901 05-29-15
158 iarebored 8.4% 14906 05-29-15
159 sonamyfan666 8.3% 14918 05-29-15
160 Werey 8.2% 14929 05-29-15
161 SonicKnuckles 8.2% 14942 05-29-15
162 adf 7.9% 14989 05-29-15
163 ArcticDragon 7.8% 14997 05-29-15
164 Megaman EXE565 7.7% 15017 05-29-15
165 Platformer 7.4% 15071 05-29-15
166 Mariobutch 7.4% 15074 05-29-15
167 FocusSight64 7.3% 15083 05-29-15
168 wheatrich 7.2% 15101 05-29-15
169 timpkmn89 7.2% 15104 05-29-15
170 Swift Hobo 7.1% 15108 05-29-15
171 Rickyman48 7.0% 15127 05-29-15
172 KitsuneYamaro 6.7% 15175 05-29-15
173 Triseena 6.6% 15194 05-29-15
174 CyberShadow 6.5% 15218 05-29-15
175 slade23 6.4% 15235 05-29-15
176 dShadow 6.4% 15237 05-29-15
177 Starlight Sable 6.3% 15238 05-29-15
178 IsisDazs 6.2% 15266 05-29-15
179 BlankTH 6.0% 15292 05-29-15
180 Monkeh 5.8% 15334 05-29-15
181 Richied 5.7% 15342 05-29-15
182 DaDude 5.6% 15362 05-29-15
183 sonicd5 5.5% 15380 05-29-15
184 Zip 5.4% 15386 05-29-15
185 Kirbymon30 5.1% 15438 05-29-15
185 tal39h 5.1% 15438 05-29-15
187 ethmar 4.9% 15480 05-29-15
188 soniccoloursunleashed 4.8% 15488 05-29-15
189 Drflash55 4.8% 15492 05-29-15
190 Yish 4.6% 15516 05-29-15
191 neaolas 4.6% 15520 05-29-15
192 Bass 4.6% 15521 05-29-15
193 UninspiredUsername 4.5% 15536 05-29-15
194 superiorsonic 4.5% 15537 05-29-15
195 Sonicsuperstar1 4.5% 15538 05-29-15
196 zapp 4.5% 15545 05-29-15
197 gamefreak1292 4.4% 15557 05-29-15
198 SonicU260 4.1% 15608 05-29-15
199 Chaos_Overlord 4.1% 15610 05-29-15
200 TakaRikka 4.0% 15625 05-29-15
201 Valfore 3.9% 15633 05-29-15
202 ShinigamiMachine 3.8% 15656 05-29-15
203 Regano1000 3.7% 15671 05-29-15
204 MK 3.6% 15686 05-29-15
205 Ace747 3.5% 15699 05-29-15
206 Illidan 3.2% 15746 05-29-15
207 HHNNBBHHN 3.2% 15758 05-29-15
208 Venick409 3.1% 15761 05-29-15
209 Brian_pso 3.1% 15772 05-29-15
210 Sithwarrior26 3.0% 15779 05-29-15
211 ingx24 2.9% 15798 05-29-15
211 TheChaosEmeraIds 2.9% 15798 05-29-15
213 SkyBon 2.8% 15809 05-29-15
214 Nickson98 2.8% 15810 05-29-15
215 FSSRandomvids 2.7% 15824 05-29-15
216 Fozer 2.7% 15825 05-29-15
217 sonic29887 2.7% 15829 05-29-15
218 Colomb_30 2.7% 15833 05-29-15
219 TheUltraBlur 2.6% 15847 05-29-15
220 1stKirbyever 2.5% 15860 05-29-15
221 Th4tN1nj4Turtl3 2.3% 15892 05-29-15
222 Cort_pso 2.3% 15894 05-29-15
223 Doom-9 2.3% 15901 05-29-15
224 ieatatsonic 2.2% 15908 05-29-15
225 Mariosonic15 2.2% 15911 05-29-15
226 SuperSonic71087 2.2% 15919 05-29-15
227 MStitomix 2.1% 15926 05-29-15
228 HermitHelmet 2.1% 15933 05-29-15
229 Artie 2.0% 15945 05-29-15
230 Got4n 2.0% 15946 05-29-15
231 Questionguy555 2.0% 15952 05-29-15
232 Jose_15 1.9% 15956 05-29-15
233 djmat 1.8% 15970 05-29-15
234 sonicandamy 1.7% 15987 05-29-15
235 SuperSonicfan9595 1.7% 15989 05-29-15
236 LancexExWx 1.7% 15995 05-29-15
237 son1cgu1tar 1.7% 15999 05-29-15
238 Heroes_Hater 1.7% 16000 05-29-15
239 Paixii 1.6% 16004 05-29-15
240 BallzeH 1.5% 16021 05-29-15
241 Mankster101 1.5% 16026 05-29-15
242 BecauseWarAnvil 1.5% 16031 05-29-15
242 Jamixesa 1.5% 16031 05-29-15
244 Crydio 1.4% 16036 05-29-15
245 Shanekilz 1.4% 16040 05-29-15
246 SpiritDragon1995 1.4% 16041 05-29-15
247 ReuelBrony 1.4% 16049 05-29-15
248 stanski 1.3% 16055 05-29-15
249 MarewBFN 1.3% 16058 05-29-15
250 Sonique Hedgehog 1.3% 16063 05-29-15
251 Blue Infamy 1.2% 16071 05-29-15
252 p0ker 1.2% 16072 05-29-15
253 ErrortheCucco 1.2% 16081 05-29-15
254 Arthas 1.2% 16083 05-29-15
255 Rikum22 1.1% 16084 05-29-15
256 sonic1001 1.1% 16092 05-29-15
257 WingedInsignia 1.1% 16095 05-29-15
258 syco1098 1.1% 16099 05-29-15
259 AJSIV 1.0% 16102 05-29-15
260 Sonic the Hedgehod16 1.0% 16104 05-29-15
261 sonicfan9 1.0% 16106 05-29-15
262 Calfd 1.0% 16109 05-29-15
263 BlackArmsShadow 0.9% 16119 05-29-15
264 themachoman202 0.9% 16124 05-29-15
265 Ben1502 0.9% 16130 05-29-15
265 Greham Adelphis 0.9% 16130 05-29-15
267 MastaToken 0.9% 16131 05-29-15
268 shadowblast63 Player Banned 0.9% 16132 05-29-15
269 Fivavoa 0.8% 16133 05-29-15
270 Mr. Jones 0.8% 16134 05-29-15
271 arcfx1985 0.8% 16136 05-29-15
271 darkstarblaze 0.8% 16136 05-29-15
271 ptorflaxendrosis 0.8% 16136 05-29-15
274 Gvozdevik 0.8% 16140 05-29-15
274 Knuckles 0.8% 16140 05-29-15
276 FlandreScarlet9999vr 0.8% 16141 05-29-15
277 Zeldocto 0.8% 16146 05-29-15
278 KaM Mark MaK 0.7% 16150 05-29-15
279 BeeAwwb 0.7% 16154 05-29-15
280 ShadouZaHejjihoggu 0.7% 16157 05-29-15
281 Sonic62 0.7% 16162 05-29-15
282 Sogeking 0.7% 16165 05-29-15
283 darkersupershadic 0.6% 16166 05-29-15
284 Shadygamerfreak 0.6% 16169 05-29-15
285 dragondragon18 0.6% 16170 05-29-15
286 Sarger001 0.6% 16171 05-29-15
286 SonicK100 0.6% 16171 05-29-15
288 Grady219 0.6% 16172 05-29-15
289 Jawaah 0.6% 16176 05-29-15
290 Antek 0.6% 16181 05-29-15
290 SilverK 0.6% 16181 05-29-15
292 Klaus 0.5% 16183 05-29-15
293 SpinDashMaster 0.5% 16186 05-29-15
294 BioShadow 0.5% 16187 05-29-15
295 Videogamer123 0.5% 16191 05-29-15
296 Egor305 0.4% 16206 05-29-15
296 oTaiIilLsS 0.4% 16206 05-29-15
298 Mad Andy 0.4% 16207 05-29-15
299 isaihtb11 0.4% 16208 05-29-15
300 OhNoes! 0.4% 16209 05-29-15
301 zaktu40 0.4% 16210 05-29-15
302 S-MS32X-S 0.4% 16212 05-29-15
303 gaara1234 0.4% 16213 05-29-15
304 gamed00d 0.3% 16214 05-29-15
305 Mister_Slick 0.3% 16224 05-29-15
306 Sonic06Fan 0.3% 16226 05-29-15
307 Rush Hero 0.3% 16227 05-29-15
308 SonicMega167 0.3% 16230 05-29-15
309 Iwannabelink 0.2% 16231 05-29-15
310 sonknuck23 0.2% 16236 05-29-15
311 DanielTheFalcon 0.2% 16241 05-29-15
311 gamer1245 0.2% 16241 05-29-15
313 Burningskull123 0.1% 16249 05-29-15
314 Sonicontherun 0.1% 16259 05-29-15
315 Lil_Dude 0.0% 16263 05-29-15
316 antiwwe 0.0% 16265 05-29-15
317 Cbwade15 0.0% 16269 05-29-15
317 Genuine Hedgehog 0.0% 16269 05-29-15
319 Tyrouble 0.0% 16272 05-29-15
320 MegabombBlade 0.0% 16279 05-29-15
320 neji_hyuuga 0.0% 16279 05-29-15
320 Over 0.0% 16279 05-29-15
320 sdj6707 Player Banned 0.0% 16279 05-29-15
320 Tran Sonic Fan Player Banned 0.0% 16279 05-29-15

This page is using the New Data Table System. [FUTURE]

Game ID: 3 | Category ID: 10
Hits: 3,231 | Hits This Month: 23 | DB Calls: 23 | Mem Usage: 5.45 MB | Time: 0.15s | Printable

The Sonic Center v3.9
Copyright 2003-2011 by The Sonic Center Team.